Time;durP1;ratioP1;P1;durP2;ratioP2;P2;SDS_P1;SDS_P2;PMS_P1;PMS_P2;Temp;Humidity;BMP_temperature;BMP_pressure;BME280_temperature;BME280_humidity;BME280_pressure;Samples;Min_cycle;Max_cycle;Signal;HPM_P1;HPM_P2
2022/01/12 00:01:53;;;;;;;9.90;5.90;;;;;;;-1.84;65.27;95309.09;5121669;27;20020;-74
2022/01/12 00:04:18;;;;;;;10.80;5.70;;;;;;;-1.91;63.94;95298.25;5112708;28;20027;-74
2022/01/12 00:06:44;;;;;;;12.27;6.40;;;;;;;-1.82;64.81;95312.44;5110637;27;20031;-74
2022/01/12 00:09:09;;;;;;;13.07;6.93;;;;;;;-1.96;64.56;95312.81;5132778;27;20091;-74
2022/01/12 00:11:35;;;;;;;14.18;6.95;;;;;;;-2.06;65.48;95319.03;5079840;28;20039;-74
2022/01/12 00:14:00;;;;;;;12.50;6.90;;;;;;;-2.03;65.54;95318.97;5094411;28;20034;-74
2022/01/12 00:16:26;;;;;;;13.40;6.30;;;;;;;-2.09;64.92;95307.22;5125835;27;20481;-74
2022/01/12 00:18:51;;;;;;;10.65;5.68;;;;;;;-1.95;65.52;95317.06;5111640;28;20057;-74
2022/01/12 00:21:17;;;;;;;10.73;5.55;;;;;;;-1.99;64.92;95312.91;5121925;27;20027;-74
2022/01/12 00:23:42;;;;;;;10.73;5.80;;;;;;;-1.95;64.50;95317.06;5130083;27;20054;-74
2022/01/12 00:26:11;;;;;;;13.98;5.68;;;;;;;-1.95;66.28;95319.59;5096960;28;20039;-74
2022/01/12 00:34:07;;;;;;;10.45;5.82;;;;;;;-2.02;67.47;95330.81;5108246;27;20043;-74
2022/01/12 00:36:32;;;;;;;13.38;6.63;;;;;;;-2.05;67.29;95338.53;5111135;27;20035;-74
2022/01/12 00:38:58;;;;;;;10.82;6.25;;;;;;;-2.12;67.50;95344.63;5094076;28;20027;-74
2022/01/12 00:41:24;;;;;;;12.95;7.15;;;;;;;-2.11;68.93;95346.31;5110246;28;20031;-74
2022/01/12 00:43:57;;;;;;;14.65;7.82;;;;;;;-2.25;67.18;95308.47;5099074;27;20110;-74
2022/01/12 00:46:22;;;;;;;15.75;8.48;;;;;;;-2.02;68.19;95341.00;5127504;27;20481;-74
2022/01/12 00:48:48;;;;;;;12.82;7.68;;;;;;;-2.09;67.97;95335.22;5101283;28;20028;-74
2022/01/12 00:51:13;;;;;;;12.85;7.35;;;;;;;-2.13;68.22;95330.25;5094095;28;20034;-74
2022/01/12 00:53:39;;;;;;;13.57;8.23;;;;;;;-2.08;68.20;95336.06;5113056;27;20035;-73
2022/01/12 00:56:05;;;;;;;13.48;7.38;;;;;;;-2.15;68.61;95335.34;5124784;27;20102;-73
2022/01/12 00:58:30;;;;;;;16.13;8.35;;;;;;;-2.10;67.72;95338.63;5095482;28;20610;-74
2022/01/12 01:00:56;;;;;;;11.00;7.30;;;;;;;-2.09;68.13;95339.47;5124093;27;20027;-74
2022/01/12 01:03:21;;;;;;;16.83;8.57;;;;;;;-2.05;67.82;95341.06;5132206;27;20042;-74
2022/01/12 01:05:47;;;;;;;13.60;7.57;;;;;;;-2.15;68.94;95321.78;5129083;27;20031;-74
2022/01/12 01:08:12;;;;;;;14.32;7.57;;;;;;;-2.15;68.09;95325.16;5131331;27;20035;-74
2022/01/12 01:10:47;;;;;;;16.63;8.13;;;;;;;-2.08;67.41;95330.97;5131716;27;20036;-74
2022/01/12 01:13:18;;;;;;;14.00;7.25;;;;;;;-2.13;68.52;95336.16;5130734;27;20038;-74
2022/01/12 01:26:25;;;;;;;14.07;7.70;;;;;;;-2.24;68.84;95333.03;5110585;28;20047;-74
2022/01/12 01:28:50;;;;;;;14.80;7.70;;;;;;;-2.30;69.13;95345.94;5113703;28;20474;-74
2022/01/12 01:31:15;;;;;;;13.82;7.93;;;;;;;-2.30;69.23;95335.75;5113753;28;20051;-74
2022/01/12 01:33:41;;;;;;;13.90;7.97;;;;;;;-2.30;69.27;95339.13;5113743;28;20031;-74
2022/01/12 01:36:07;;;;;;;14.90;7.90;;;;;;;-2.26;69.21;95328.00;5130495;27;20085;-74
2022/01/12 01:38:32;;;;;;;16.52;8.57;;;;;;;-2.30;69.34;95333.22;5130104;28;20035;-74
2022/01/12 01:40:58;;;;;;;12.50;7.50;;;;;;;-2.31;69.70;95334.91;5114368;28;20056;-73
2022/01/12 01:44:07;;;;;;;13.40;7.10;;;;;;;-2.40;69.74;95335.13;5110194;28;20043;-73
2022/01/12 01:54:21;;;;;;;10.75;6.32;;;;;;;-2.52;69.81;95325.25;5109984;28;20038;-74
2022/01/12 01:56:47;;;;;;;13.43;7.60;;;;;;;-2.54;69.04;95320.19;5110533;28;20027;-74
2022/01/12 01:59:12;;;;;;;14.50;7.10;;;;;;;-2.51;68.65;95332.00;5111627;28;20485;-73
2022/01/12 02:01:37;;;;;;;11.77;6.32;;;;;;;-2.43;69.99;95349.63;5110160;28;20025;-73
2022/01/12 02:04:04;;;;;;;12.77;6.85;;;;;;;-2.42;70.13;95351.28;5111018;28;20032;-73
2022/01/12 02:06:30;;;;;;;13.23;6.97;;;;;;;-2.55;70.25;95338.03;5093415;28;20473;-74
2022/01/12 02:08:56;;;;;;;17.88;8.50;;;;;;;-2.38;70.11;95347.81;5115002;28;20028;-74
2022/01/12 02:11:26;;;;;;;15.75;8.05;;;;;;;-2.36;69.77;95352.00;5112336;28;20027;-73
2022/01/12 02:13:51;;;;;;;16.88;8.35;;;;;;;-2.35;69.19;95348.56;5113400;27;20038;-73
2022/01/12 02:16:19;;;;;;;17.92;8.73;;;;;;;-2.34;69.36;95362.13;5130073;27;20032;-73
2022/01/12 02:40:21;;;;;;;13.82;7.20;;;;;;;-2.32;66.77;95373.94;5124673;27;20062;-73
2022/01/12 02:42:56;;;;;;;13.63;6.95;;;;;;;-2.26;67.15;95378.06;5130512;27;20485;-73
2022/01/12 02:53:39;;;;;;;12.88;6.80;;;;;;;-2.17;66.50;95400.78;5135298;27;20058;-74
2022/01/12 02:56:06;;;;;;;10.07;6.10;;;;;;;-2.18;65.84;95400.78;5130220;27;20106;-74
2022/01/12 02:58:32;;;;;;;12.45;6.43;;;;;;;-2.07;65.13;95401.38;5096196;28;20027;-74
2022/01/12 03:03:43;;;;;;;11.30;5.55;;;;;;;-2.09;63.91;95400.56;5117401;27;20053;-73
2022/01/12 03:06:10;;;;;;;14.48;6.65;;;;;;;-2.09;64.89;95405.66;5114132;27;20398;-73
2022/01/12 03:08:38;;;;;;;10.35;5.80;;;;;;;-2.23;64.57;95383.06;5112980;28;20035;-73
2022/01/12 03:11:08;;;;;;;10.57;6.10;;;;;;;-2.07;64.28;95416.66;5097661;27;20484;-74
2022/01/12 03:13:33;;;;;;;15.20;8.13;;;;;;;-2.03;64.63;95413.16;5099471;27;20039;-73
2022/01/12 03:15:59;;;;;;;18.23;8.60;;;;;;;-2.09;64.40;95406.53;5104423;28;20023;-73
2022/01/12 03:18:25;;;;;;;17.63;8.70;;;;;;;-2.07;65.06;95409.84;5116022;27;20032;-74
2022/01/12 03:20:50;;;;;;;13.57;6.13;;;;;;;-1.97;64.39;95420.66;5112563;28;20417;-73
2022/01/12 03:23:16;;;;;;;10.52;6.10;;;;;;;-2.03;64.24;95425.91;5112701;28;20038;-73
2022/01/12 03:25:42;;;;;;;10.10;5.95;;;;;;;-2.01;64.10;95426.69;5112374;28;20035;-73
2022/01/12 03:28:07;;;;;;;11.63;5.93;;;;;;;-2.03;64.21;95421.63;5122583;27;20035;-73
2022/01/12 03:30:41;;;;;;;10.77;5.60;;;;;;;-2.00;64.14;95435.19;5123370;27;20040;-74
2022/01/12 03:33:17;;;;;;;11.90;6.38;;;;;;;-2.06;63.62;95429.34;5114457;27;20035;-74
2022/01/12 04:08:42;;;;;;;12.80;7.28;;;;;;;-2.31;64.33;95459.63;5134731;27;20034;-73
2022/01/12 04:11:08;;;;;;;10.35;5.95;;;;;;;-2.25;64.01;95479.03;5114950;27;20030;-74
2022/01/12 04:13:33;;;;;;;20.88;14.23;;;;;;;-2.21;63.40;95482.31;5132982;27;20023;-74
2022/01/12 04:16:03;;;;;;;17.80;9.50;;;;;;;-2.23;62.88;95478.97;5122120;27;20029;-73
2022/01/12 04:18:29;;;;;;;17.02;8.63;;;;;;;-2.33;63.71;95481.72;5098078;27;20119;-73
2022/01/12 04:20:54;;;;;;;12.73;6.50;;;;;;;-2.30;63.32;95494.38;5115080;27;20027;-73
2022/01/12 04:23:21;;;;;;;11.55;5.97;;;;;;;-2.26;63.42;95495.16;5114641;27;20031;-73
2022/01/12 04:25:48;;;;;;;12.93;6.95;;;;;;;-2.22;62.39;95498.47;5112466;27;20026;-74
2022/01/12 04:28:13;;;;;;;14.02;6.80;;;;;;;-2.37;63.60;95485.19;5114550;27;20420;-74
2022/01/12 04:30:39;;;;;;;13.07;7.00;;;;;;;-2.33;63.08;95503.81;5133272;27;20035;-73
2022/01/12 04:33:04;;;;;;;12.90;6.43;;;;;;;-2.38;63.09;95501.34;5115426;27;20504;-73
2022/01/12 04:35:34;;;;;;;13.82;7.00;;;;;;;-2.36;62.53;95514.88;5133246;27;20030;-73
2022/01/12 04:37:59;;;;;;;16.58;8.18;;;;;;;-2.40;63.07;95515.81;5119053;27;20056;-73
2022/01/12 04:40:25;;;;;;;19.45;8.60;;;;;;;-2.35;63.18;95516.56;5122779;27;20051;-73
2022/01/12 04:42:52;;;;;;;33.08;14.98;;;;;;;-2.40;63.25;95513.25;5114154;27;20059;-74
2022/01/12 04:45:36;;;;;;;62.83;30.02;;;;;;;-2.41;63.65;95516.69;5097879;27;20035;-73
2022/01/12 04:50:37;;;;;;;21.13;10.63;;;;;;;-2.43;63.63;95520.97;5118102;27;20038;-73
2022/01/12 04:53:03;;;;;;;11.75;6.68;;;;;;;-2.44;63.04;95516.75;5104186;27;20038;-73
2022/01/12 04:55:28;;;;;;;17.77;7.53;;;;;;;-2.69;63.21;95480.81;5152782;27;20027;-74
2022/01/12 04:57:54;;;;;;;26.52;12.20;;;;;;;-2.48;63.31;95522.75;5134903;27;20023;-73
2022/01/12 05:00:21;;;;;;;14.95;7.43;;;;;;;-2.39;63.05;95521.75;5132947;27;20083;-73
2022/01/12 05:13:33;;;;;;;20.48;9.63;;;;;;;-2.43;62.89;95553.22;5132514;27;20054;-73
2022/01/12 05:16:00;;;;;;;22.92;10.00;;;;;;;-2.49;62.76;95551.63;5101078;28;20080;-73
2022/01/12 05:18:25;;;;;;;16.38;8.48;;;;;;;-2.51;62.90;95555.91;5098080;27;20469;-73
2022/01/12 05:20:51;;;;;;;39.65;19.05;;;;;;;-2.55;63.09;95551.75;5098748;27;20035;-73
2022/01/12 05:23:16;;;;;;;35.08;16.33;;;;;;;-2.55;62.74;95541.59;5113784;27;20080;-73
2022/01/12 05:25:42;;;;;;;27.27;12.98;;;;;;;-2.58;63.64;95560.28;5114829;27;20030;-73
2022/01/12 05:28:07;;;;;;;15.65;8.77;;;;;;;-2.53;63.66;95562.75;5133253;27;20080;-74
2022/01/12 05:30:33;;;;;;;25.88;11.73;;;;;;;-2.54;63.34;95576.31;5126534;27;20043;-74
2022/01/12 05:32:59;;;;;;;21.90;11.07;;;;;;;-2.55;64.10;95572.13;5105270;27;20033;-73
2022/01/12 05:35:30;;;;;;;19.15;8.57;;;;;;;-2.58;63.53;95564.53;5117815;27;20102;-74
2022/01/12 05:37:56;;;;;;;15.23;7.65;;;;;;;-2.60;62.73;95576.44;5115028;28;20042;-73
2022/01/12 05:40:22;;;;;;;32.92;14.75;;;;;;;-2.53;63.41;95580.56;5096975;28;20031;-74
2022/01/12 05:42:49;;;;;;;16.67;8.52;;;;;;;-2.52;63.53;95585.59;5099897;27;20031;-74
2022/01/12 05:45:18;;;;;;;31.92;14.68;;;;;;;-2.59;62.93;95589.16;5125415;27;20148;-73
2022/01/12 05:50:08;;;;;;;49.38;20.20;;;;;;;-2.63;62.76;95597.69;5117930;27;20034;-74
2022/01/12 05:52:34;;;;;;;54.88;22.48;;;;;;;-2.61;62.24;95595.97;5117483;27;20057;-74
2022/01/12 05:55:02;;;;;;;45.97;17.75;;;;;;;-2.65;62.79;95596.88;5117639;27;20089;-74
2022/01/12 05:57:29;;;;;;;19.70;9.13;;;;;;;-2.66;62.14;95594.38;5101359;27;20111;-74
2022/01/12 05:59:55;;;;;;;13.38;7.18;;;;;;;-2.71;62.72;95597.00;5105991;27;20026;-74
2022/01/12 06:02:20;;;;;;;16.73;7.40;;;;;;;-2.64;62.28;95605.38;5100244;27;20039;-73
2022/01/12 06:04:46;;;;;;;16.23;9.52;;;;;;;-2.66;61.70;95607.94;5152662;27;20019;-73
2022/01/12 06:07:11;;;;;;;15.50;9.98;;;;;;;-2.70;61.96;95609.72;5138135;27;20537;-73
2022/01/12 06:09:37;;;;;;;17.10;10.23;;;;;;;-2.78;62.34;95618.34;5128801;27;20027;-73
2022/01/12 06:12:02;;;;;;;14.02;8.57;;;;;;;-2.75;62.67;95624.22;5117496;27;20046;-74
2022/01/12 06:14:29;;;;;;;20.52;10.80;;;;;;;-2.77;62.97;95637.81;5117495;27;20028;-73
2022/01/12 06:16:54;;;;;;;28.42;15.07;;;;;;;-2.75;62.47;95643.72;5137939;27;20458;-74
2022/01/12 06:19:20;;;;;;;26.77;13.98;;;;;;;-2.78;63.13;95642.06;5132256;27;20027;-74
2022/01/12 06:21:45;;;;;;;66.45;27.50;;;;;;;-2.77;62.17;95648.00;5167919;27;20054;-74
2022/01/12 06:24:11;;;;;;;76.28;24.95;;;;;;;-2.82;62.67;95642.13;5148734;27;20488;-73
2022/01/12 06:26:37;;;;;;;23.98;12.40;;;;;;;-2.97;62.45;95638.16;5176500;27;20030;-73
2022/01/12 06:31:34;;;;;;;19.70;10.82;;;;;;;-2.95;62.67;95650.00;5155431;27;20050;-73
2022/01/12 06:33:59;;;;;;;24.13;13.73;;;;;;;-2.94;62.62;95663.53;5143799;27;20090;-73
2022/01/12 06:36:26;;;;;;;26.30;14.32;;;;;;;-2.99;63.46;95666.16;5140269;27;20034;-75
2022/01/12 06:38:51;;;;;;;23.55;13.57;;;;;;;-3.00;63.82;95669.56;5134030;27;20035;-72
2022/01/12 06:41:17;;;;;;;32.88;16.30;;;;;;;-2.94;62.89;95673.72;5166975;27;20040;-73
2022/01/12 06:43:42;;;;;;;17.83;9.52;;;;;;;-2.92;62.32;95665.19;5145201;27;20034;-72
2022/01/12 06:46:08;;;;;;;16.75;7.75;;;;;;;-2.93;63.31;95665.22;5138735;27;20484;-71
2022/01/12 06:48:34;;;;;;;17.27;8.95;;;;;;;-2.87;62.54;95680.38;5133114;27;20503;-70
2022/01/12 06:50:59;;;;;;;15.95;7.82;;;;;;;-2.87;63.34;95672.75;5133872;27;20031;-73
2022/01/12 06:53:25;;;;;;;14.25;7.50;;;;;;;-2.81;61.93;95690.44;5106683;27;20066;-73
2022/01/12 06:55:50;;;;;;;11.75;7.18;;;;;;;-2.83;62.05;95692.19;5131602;27;20038;-73
2022/01/12 06:58:16;;;;;;;15.98;8.90;;;;;;;-2.84;62.29;95682.88;5154604;27;20512;-73
2022/01/12 07:00:41;;;;;;;14.02;8.20;;;;;;;-2.76;62.05;95691.22;5148062;27;20060;-72
2022/01/12 07:03:07;;;;;;;12.38;7.20;;;;;;;-2.77;61.86;95686.16;5150332;27;20422;-73
2022/01/12 07:05:32;;;;;;;12.63;7.30;;;;;;;-2.72;62.71;95695.38;5168843;27;20467;-72
2022/01/12 07:07:58;;;;;;;33.95;19.92;;;;;;;-2.74;62.56;95696.25;5168977;27;20030;-73
2022/01/12 07:10:24;;;;;;;14.15;9.07;;;;;;;-2.74;62.24;95698.81;5139309;27;20082;-73
2022/01/12 07:12:50;;;;;;;12.63;7.53;;;;;;;-2.67;62.40;95696.97;5131116;27;20031;-73
2022/01/12 07:15:15;;;;;;;12.43;7.35;;;;;;;-2.77;62.98;95689.53;5134260;27;20032;-73
2022/01/12 07:17:40;;;;;;;9.13;5.57;;;;;;;-2.70;61.84;95692.81;5174100;27;20029;-73
2022/01/12 07:20:06;;;;;;;14.40;7.05;;;;;;;-2.66;61.88;95703.78;5156245;27;20026;-73
2022/01/12 07:22:32;;;;;;;14.88;7.32;;;;;;;-2.72;62.56;95699.63;5130565;27;20118;-72
2022/01/12 07:24:57;;;;;;;13.43;7.38;;;;;;;-2.73;61.24;95705.56;5156652;27;20026;-73
2022/01/12 07:27:23;;;;;;;12.43;6.70;;;;;;;-2.76;61.58;95714.13;5155191;27;20113;-73
2022/01/12 07:29:48;;;;;;;15.73;7.72;;;;;;;-2.76;62.46;95719.19;5136941;27;20030;-72
2022/01/12 07:32:13;;;;;;;13.98;7.25;;;;;;;-2.79;61.07;95720.94;5145183;27;20404;-72
2022/01/12 07:34:39;;;;;;;12.75;6.90;;;;;;;-2.80;61.94;95724.34;5169725;27;20083;-73
2022/01/12 07:37:05;;;;;;;11.02;6.55;;;;;;;-2.89;60.83;95724.50;5174134;27;20037;-73
2022/01/12 07:39:31;;;;;;;11.10;6.18;;;;;;;-2.98;60.71;95717.84;5142882;27;20290;-73
2022/01/12 07:41:56;;;;;;;10.48;6.10;;;;;;;-2.98;62.06;95728.00;5149894;27;20034;-72
2022/01/12 07:44:22;;;;;;;12.18;8.15;;;;;;;-3.08;61.21;95727.31;5145624;27;20078;-73
2022/01/12 07:46:48;;;;;;;17.27;9.32;;;;;;;-3.04;62.31;95736.56;5134346;27;20026;-72
2022/01/12 07:49:13;;;;;;;18.50;11.10;;;;;;;-3.03;62.19;95727.25;5144881;27;20086;-73
2022/01/12 07:51:38;;;;;;;18.65;9.20;;;;;;;-3.02;61.67;95728.94;5174743;27;20026;-73
2022/01/12 07:54:04;;;;;;;18.63;9.55;;;;;;;-2.95;60.50;95740.69;5152967;27;20499;-72
2022/01/12 07:56:29;;;;;;;19.48;10.07;;;;;;;-2.97;61.18;95727.16;5134174;27;20031;-73
2022/01/12 07:58:55;;;;;;;19.02;10.05;;;;;;;-2.94;61.01;95732.19;5166094;27;20091;-73
2022/01/12 08:01:20;;;;;;;20.05;9.27;;;;;;;-2.88;60.13;95747.34;5174463;27;20030;-73
2022/01/12 08:03:45;;;;;;;16.80;7.82;;;;;;;-2.83;60.83;95747.28;5139498;27;20023;-73
2022/01/12 08:06:11;;;;;;;15.95;9.10;;;;;;;-2.77;61.41;95757.38;5153260;27;20042;-73
2022/01/12 08:08:36;;;;;;;14.02;8.52;;;;;;;-2.65;61.16;95761.41;5129134;27;20022;-73
2022/01/12 08:11:02;;;;;;;51.33;26.00;;;;;;;-2.59;60.73;95763.84;5146587;27;20133;-73
2022/01/12 08:13:27;;;;;;;23.40;12.50;;;;;;;-2.50;60.13;95759.47;5115347;27;20023;-74
2022/01/12 08:15:53;;;;;;;59.92;33.28;;;;;;;-2.49;60.56;95760.28;5155500;27;20384;-73
2022/01/12 08:18:18;;;;;;;19.75;10.82;;;;;;;-2.35;59.46;95765.97;5171730;27;20119;-72
2022/01/12 08:20:43;;;;;;;21.25;12.25;;;;;;;-2.33;60.03;95769.34;5135427;27;20039;-73
2022/01/12 08:23:09;;;;;;;55.67;23.80;;;;;;;-2.41;59.89;95768.63;5141187;27;20499;-72
2022/01/12 08:25:38;;;;;;;67.07;25.73;;;;;;;-2.27;59.60;95779.41;5121685;27;20070;-72
2022/01/12 08:28:05;;;;;;;72.50;31.65;;;;;;;-2.24;59.10;95773.44;5114693;27;20450;-72
2022/01/12 08:30:32;;;;;;;58.88;27.67;;;;;;;-2.23;58.88;95771.72;5121296;27;20043;-72
2022/01/12 08:32:57;;;;;;;30.55;15.15;;;;;;;-2.17;58.63;95779.25;5134782;27;20018;-73
2022/01/12 08:35:23;;;;;;;20.33;10.90;;;;;;;-2.15;57.68;95783.44;5116013;27;20480;-73
2022/01/12 08:37:48;;;;;;;24.33;14.63;;;;;;;-2.23;58.70;95771.72;5139893;27;20039;-72
2022/01/12 08:40:15;;;;;;;28.60;15.05;;;;;;;-2.11;58.73;95790.19;5114651;27;20023;-72
2022/01/12 08:42:41;;;;;;;19.13;11.75;;;;;;;-2.14;58.62;95784.31;5110570;27;20035;-72
2022/01/12 08:45:06;;;;;;;33.97;20.27;;;;;;;-2.10;59.28;95781.66;5096985;27;20041;-72
2022/01/12 08:47:32;;;;;;;16.35;10.45;;;;;;;-2.12;57.83;95782.56;5114409;27;20060;-72
2022/01/12 08:49:57;;;;;;;16.35;10.98;;;;;;;-2.08;58.47;95776.56;5132791;27;20027;-73
2022/01/12 08:52:23;;;;;;;18.60;10.30;;;;;;;-2.02;57.91;95778.97;5097523;27;20039;-73
2022/01/12 08:54:48;;;;;;;24.83;13.27;;;;;;;-2.02;58.27;95784.91;5114109;27;20504;-73
2022/01/12 08:57:14;;;;;;;21.38;10.52;;;;;;;-2.02;57.53;95784.91;5114435;27;20031;-71
2022/01/12 08:59:39;;;;;;;21.65;12.82;;;;;;;-2.09;57.00;95788.44;5132387;27;20452;-72
2022/01/12 09:02:06;;;;;;;17.27;9.32;;;;;;;-2.12;56.48;95787.66;5114315;27;20459;-70
2022/01/12 09:04:32;;;;;;;16.38;9.45;;;;;;;-2.22;56.65;95766.63;5132027;27;20386;-73
2022/01/12 09:06:58;;;;;;;20.60;11.05;;;;;;;-2.13;57.20;95780.88;5114159;27;20034;-72
2022/01/12 09:09:24;;;;;;;28.27;12.15;;;;;;;-2.12;58.23;95772.38;5114108;27;20032;-73
2022/01/12 09:11:50;;;;;;;25.90;10.73;;;;;;;-2.12;56.69;95774.91;5097378;27;20396;-72
2022/01/12 09:14:16;;;;;;;15.60;9.27;;;;;;;-2.16;57.16;95761.41;5096714;27;20030;-73
2022/01/12 09:16:41;;;;;;;20.88;9.70;;;;;;;-2.00;57.59;95773.88;5096735;28;20417;-72
2022/01/12 09:19:09;;;;;;;14.95;8.77;;;;;;;-1.99;56.78;95762.81;5113772;27;20034;-72
2022/01/12 09:21:34;;;;;;;31.13;15.65;;;;;;;-1.92;57.08;95764.34;5132532;27;20028;-72
2022/01/12 09:23:59;;;;;;;11.77;6.20;;;;;;;-1.85;57.00;95769.31;5113622;28;20390;-72
2022/01/12 09:26:25;;;;;;;15.55;7.05;;;;;;;-1.82;56.58;95771.78;5096953;28;20039;-72
2022/01/12 09:28:50;;;;;;;16.50;8.38;;;;;;;-1.83;56.17;95771.84;5132256;28;20039;-73
2022/01/12 09:31:16;;;;;;;24.92;10.48;;;;;;;-1.91;56.67;95760.97;5132616;28;20538;-72
2022/01/12 09:33:42;;;;;;;18.98;8.27;;;;;;;-1.85;56.61;95766.75;5079744;28;20023;-72
2022/01/12 09:36:07;;;;;;;36.50;13.20;;;;;;;-1.80;56.55;95769.22;5132259;28;20073;-72
2022/01/12 09:38:33;;;;;;;28.73;11.98;;;;;;;-1.83;56.15;95754.00;5131916;28;20019;-72
2022/01/12 09:40:59;;;;;;;57.33;19.58;;;;;;;-1.82;56.63;95768.41;5096783;28;20035;-72
2022/01/12 09:43:26;;;;;;;24.70;11.00;;;;;;;-1.86;57.11;95760.00;5113364;28;20023;-73
2022/01/12 09:45:52;;;;;;;21.85;10.20;;;;;;;-1.80;57.24;95769.22;5113639;28;20058;-72
2022/01/12 09:48:23;;;;;;;24.88;10.88;;;;;;;-1.76;57.44;95770.00;5096659;28;20656;-72
2022/01/12 09:50:51;;;;;;;18.42;8.90;;;;;;;-1.71;57.15;95770.75;5131924;28;20528;-73
2022/01/12 09:53:16;;;;;;;17.58;10.40;;;;;;;-1.84;56.11;95748.09;5113318;28;20036;-72
2022/01/12 09:55:41;;;;;;;21.67;8.85;;;;;;;-1.84;56.42;95762.50;5096606;28;20096;-72
2022/01/12 09:58:07;;;;;;;20.90;9.27;;;;;;;-1.86;57.46;95771.91;5131959;28;20073;-72
2022/01/12 10:00:33;;;;;;;17.85;8.02;;;;;;;-1.83;56.23;95761.66;5131920;28;20465;-72
2022/01/12 10:03:09;;;;;;;21.92;10.88;;;;;;;-1.83;56.87;95766.75;5113491;28;20023;-73
2022/01/12 10:05:35;;;;;;;13.50;7.38;;;;;;;-1.86;56.60;95761.72;5113038;28;20035;-73
2022/01/12 10:08:08;;;;;;;13.82;7.32;;;;;;;-1.88;56.69;95766.81;5096744;28;20027;-72
2022/01/12 10:10:34;;;;;;;20.55;8.35;;;;;;;-1.83;55.54;95769.28;5113611;28;20027;-72
2022/01/12 10:12:59;;;;;;;13.32;6.03;;;;;;;-1.84;56.33;95755.72;5131724;28;20386;-72
2022/01/12 10:15:27;;;;;;;12.57;6.70;;;;;;;-1.78;55.60;95774.28;5113328;28;20473;-72
2022/01/12 10:17:53;;;;;;;23.63;9.35;;;;;;;-1.82;56.81;95766.69;5113173;28;20034;-72
2022/01/12 10:20:22;;;;;;;20.88;9.25;;;;;;;-1.78;56.32;95766.63;5096100;28;20032;-73
2022/01/12 10:23:05;;;;;;;24.42;10.50;;;;;;;-1.76;56.17;95770.00;5079705;28;20489;-72
2022/01/12 10:25:31;;;;;;;17.83;10.80;;;;;;;-1.76;56.31;95775.94;5097705;28;20114;-72
2022/01/12 10:27:57;;;;;;;21.98;13.55;;;;;;;-1.76;57.10;95777.66;5131813;27;20034;-72
2022/01/12 10:30:23;;;;;;;19.95;7.93;;;;;;;-1.84;55.54;95771.00;5116889;27;20042;-72
2022/01/12 10:32:59;;;;;;;20.95;9.75;;;;;;;-1.82;56.04;95770.97;5100360;27;20108;-73
2022/01/12 10:35:28;;;;;;;26.83;10.82;;;;;;;-1.84;56.78;95771.00;5116686;27;20062;-73
2022/01/12 10:38:11;;;;;;;20.45;10.50;;;;;;;-1.81;55.72;95768.41;5116834;27;20069;-72
2022/01/12 10:40:45;;;;;;;27.25;12.27;;;;;;;-1.87;56.80;95757.47;5135121;27;20449;-72
2022/01/12 10:43:36;;;;;;;16.83;8.50;;;;;;;-1.78;56.80;95762.41;5135164;27;20105;-72
2022/01/12 10:46:15;;;;;;;40.13;22.23;;;;;;;-1.77;57.13;95765.78;5116573;27;20112;-72
2022/01/12 10:48:45;;;;;;;17.95;8.63;;;;;;;-1.72;55.79;95761.44;5099881;27;20035;-73
2022/01/12 10:51:11;;;;;;;21.70;9.30;;;;;;;-1.82;56.17;95751.41;5099908;27;20030;-72
2022/01/12 10:53:37;;;;;;;18.77;8.20;;;;;;;-1.77;56.31;95763.25;5099704;27;20031;-72
2022/01/12 10:56:13;;;;;;;20.58;7.88;;;;;;;-1.70;56.46;95767.31;5116261;27;20031;-72
2022/01/12 10:58:43;;;;;;;33.25;13.80;;;;;;;-1.78;56.67;95757.31;5134713;27;20068;-72
2022/01/12 11:01:09;;;;;;;18.13;10.07;;;;;;;-1.70;57.19;95760.53;5091655;27;20058;-73
2022/01/12 11:03:35;;;;;;;16.00;7.90;;;;;;;-1.77;56.42;95751.34;5099658;27;20445;-72
2022/01/12 11:06:00;;;;;;;18.23;12.43;;;;;;;-1.67;56.15;95764.72;5135037;27;20037;-72
2022/01/12 11:08:26;;;;;;;23.40;14.25;;;;;;;-1.72;56.54;95756.34;5099161;27;20560;-73
2022/01/12 11:10:56;;;;;;;25.13;16.42;;;;;;;-1.66;57.35;95751.97;5116322;27;20556;-73
2022/01/12 11:13:23;;;;;;;21.95;10.85;;;;;;;-1.66;56.47;95759.59;5099712;27;20035;-73
2022/01/12 11:15:49;;;;;;;20.17;10.60;;;;;;;-1.68;56.08;95750.31;5099389;27;20019;-72
2022/01/12 11:18:15;;;;;;;30.83;12.95;;;;;;;-1.70;55.92;95752.03;5116205;27;20059;-73
2022/01/12 11:20:40;;;;;;;22.92;11.23;;;;;;;-1.76;55.80;95759.81;5099100;27;20534;-72
2022/01/12 11:23:17;;;;;;;27.90;10.55;;;;;;;-1.74;56.11;95764.00;5099201;27;20035;-72
2022/01/12 11:25:44;;;;;;;18.65;8.48;;;;;;;-1.75;55.61;95761.50;5099096;27;20054;-72
2022/01/12 11:28:23;;;;;;;9.93;5.75;;;;;;;-1.81;55.46;95763.31;5115766;27;20034;-72
2022/01/12 11:30:52;;;;;;;12.68;7.32;;;;;;;-1.76;55.89;95759.81;5116583;27;20530;-72
2022/01/12 11:33:22;;;;;;;26.83;11.15;;;;;;;-1.73;56.28;95765.69;5134653;27;20043;-73
2022/01/12 11:35:52;;;;;;;23.65;15.55;;;;;;;-1.73;56.02;95770.78;5134304;27;20027;-72
2022/01/12 11:38:20;;;;;;;15.77;7.15;;;;;;;-1.72;55.66;95777.56;5116612;27;20038;-73
2022/01/12 11:40:46;;;;;;;16.42;7.65;;;;;;;-1.77;56.11;95764.06;5134007;27;20035;-73
2022/01/12 11:43:25;;;;;;;14.20;6.32;;;;;;;-1.76;55.75;95775.09;5098463;27;20031;-72
2022/01/12 11:46:01;;;;;;;18.88;8.00;;;;;;;-1.76;55.95;95780.19;5099424;27;20038;-73
2022/01/12 11:48:35;;;;;;;40.42;13.70;;;;;;;-1.83;56.02;95777.78;5115376;27;20080;-73
2022/01/12 11:51:00;;;;;;;42.67;17.02;;;;;;;-1.73;54.96;95782.69;5098895;27;20031;-72
2022/01/12 11:53:27;;;;;;;31.02;13.15;;;;;;;-1.71;55.69;95776.69;5133813;27;20031;-72
2022/01/12 11:55:53;;;;;;;18.20;9.27;;;;;;;-1.63;55.91;95785.03;5098365;27;20076;-72
2022/01/12 11:58:19;;;;;;;13.80;7.03;;;;;;;-1.72;55.42;95784.38;5098655;27;20035;-72
2022/01/12 12:00:45;;;;;;;17.90;11.23;;;;;;;-1.72;56.66;95776.72;5115453;27;20031;-72
2022/01/12 12:03:15;;;;;;;23.15;11.63;;;;;;;-1.61;56.29;95790.09;5098395;27;20103;-73
2022/01/12 12:05:41;;;;;;;21.67;10.57;;;;;;;-1.62;55.58;95796.03;5133637;27;20038;-73
2022/01/12 12:08:06;;;;;;;17.75;9.90;;;;;;;-1.65;56.29;95785.91;5133374;27;20023;-72
2022/01/12 12:10:39;;;;;;;17.83;8.70;;;;;;;-1.63;56.00;95781.63;5133579;27;20031;-73
2022/01/12 12:13:05;;;;;;;15.05;6.90;;;;;;;-1.58;54.61;95800.22;5115383;27;20027;-72
2022/01/12 12:15:31;;;;;;;13.15;6.47;;;;;;;-1.60;55.01;95795.16;5115030;27;20055;-72
2022/01/12 12:18:00;;;;;;;14.68;7.88;;;;;;;-1.58;54.47;95797.69;5133167;27;20027;-72
2022/01/12 12:20:25;;;;;;;14.10;9.32;;;;;;;-1.65;54.01;95803.75;5098259;27;20080;-73
2022/01/12 12:22:51;;;;;;;22.20;11.00;;;;;;;-1.58;55.55;95802.78;5115018;27;20035;-72
2022/01/12 12:25:21;;;;;;;15.40;9.13;;;;;;;-1.55;55.87;95801.88;5097915;27;20041;-71
2022/01/12 12:27:57;;;;;;;11.55;7.22;;;;;;;-1.54;54.17;95791.63;5114594;27;20106;-73
2022/01/12 12:30:23;;;;;;;11.93;6.15;;;;;;;-1.55;53.67;95796.78;5115055;27;20050;-73
2022/01/12 12:32:57;;;;;;;9.10;5.15;;;;;;;-1.68;53.55;95791.06;5114678;27;20023;-72
2022/01/12 12:35:27;;;;;;;9.82;5.50;;;;;;;-1.66;53.25;95787.63;5097976;27;20511;-72
2022/01/12 12:37:54;;;;;;;13.15;7.35;;;;;;;-1.61;55.08;95796.03;5098172;27;20038;-72
2022/01/12 12:40:22;;;;;;;12.38;7.55;;;;;;;-1.56;54.07;95795.94;5114361;27;20050;-72
2022/01/12 12:43:12;;;;;;;14.57;7.68;;;;;;;-1.55;53.47;95782.31;5114481;27;20023;-73
2022/01/12 12:45:48;;;;;;;23.23;11.30;;;;;;;-1.50;53.59;95785.63;5117835;27;20054;-72
2022/01/12 12:48:18;;;;;;;70.85;30.15;;;;;;;-1.53;52.23;95789.91;5081925;27;20493;-73
2022/01/12 12:50:44;;;;;;;53.47;24.27;;;;;;;-1.54;52.96;95791.63;5114511;28;20561;-73
2022/01/12 12:53:10;;;;;;;131.82;51.42;;;;;;;-1.45;53.08;95791.47;5080324;27;20108;-73
2022/01/12 12:55:37;;;;;;;47.38;23.52;;;;;;;-1.49;53.35;95794.94;5096987;27;20039;-72
2022/01/12 12:58:02;;;;;;;17.02;10.07;;;;;;;-1.52;53.54;95781.44;5097324;27;20038;-72
2022/01/12 13:00:28;;;;;;;17.30;9.40;;;;;;;-1.45;53.31;95793.16;5132390;27;20424;-72
2022/01/12 13:02:56;;;;;;;31.73;17.23;;;;;;;-1.46;53.84;95789.78;5097329;27;20031;-73
2022/01/12 13:05:35;;;;;;;34.92;16.98;;;;;;;-1.62;54.81;95775.66;5113947;27;20065;-73
2022/01/12 13:08:01;;;;;;;10.93;7.00;;;;;;;-1.57;52.67;95800.19;5097623;27;20038;-72
2022/01/12 13:10:31;;;;;;;17.20;9.38;;;;;;;-1.48;53.56;95806.81;5114189;27;20292;-72